Terminal Aerodrome Forecast
Issued by NWS

Home | Current Version | Previous Version | Text Only | Print | Product List | Glossary On
Versions: 1 2 3 4 5 6 7 8 9 10 11 12 13 14 15 16 17 18 19 20 21
000
FTUS43 KGRB 251100
TAFCWA
TAF
KCWA 251139Z 2512/2612 25011KT P6SM OVC012
     FM251500 22007KT P6SM OVC010
     FM260100 00000KT 6SM BR SCT012 BKN100
     FM260400 11003KT 5SM BR OVC007=

USA.gov is the U.S. government's official web portal to all federal, state and local government web resources and services.